Домодедово

Карта отелей и гостиниц, располагающихся рядом с аэропортом Домодедово :

Домодедово
Москва
Московская область 55° 24' 29.9412" N, 37° 54' 24.0012" E
Код аэродрома ИКАО
UUDD
Код аэродрома RU
УУДД
Координаты
N55.40832° E037.90667°
Превышение над уровнем моря
181
Основная полоса
14L/32R
Курс магнитный
135/315
Длина основной ВПП
3795
Ширина основной ВПП
53
Покрытие основной ВПП
Твёрдое
Освещение ВПП
Постоянное
Тип: 
Аэродром
Класс аэродрома: 
Международный
Принадлежность: 
ГА
Статус: 
Действующий
Сайт: 
www.domodedovo.ru
Страна: 
Россия
Регион: 
Московская область
Город: 
Москва
Дополнительная информация: 
Оператор: Группа Ист Лайн. Нкр.=(800)м. Хаб для АК: S7 Airlines, Трансаэро, Уральские авиалинии, ВИМ-Авиа, Red Wings Airlines, РусЛайн.
Погода: 

Авиационная погода в Москва - Домодедово

Погода METAR: 
UUDD 282200Z 06002MPS 040V120 CAVOK 14/06 Q1023 R32L/CLRD60 NOSIG
Время наблюдения
2022-06-28T22:00:00Z
Температура C
14.0
Точка росы
6.0
Направление ветра
60
Скорость ветра (узлы)
4
Метео видимость
6.21
Облачность
CAVOK
Нижняя граница облачности (футы)
Явления погоды
Условия полета
VFR
Аэропорт подробнее: 

Найти трансфер

С помощью этой формы Вы можете найти трансфер из аэропорта Домодедово в город, аэропорт или вокзал:

Погода в аэропортах:

Авиационная погода в Игнатьево

Регион: 
Погода METAR: 
UHBB 282200Z 35002MPS 0150 0100W R36/M0200N FG VV002 18/18 Q1003 R36/090060 NOSIG RMK QBB060 QFE735/0980
Время наблюдения
2022-06-28T22:00:00Z
Температура C
18.0
Точка росы
18.0
Направление ветра
350
Скорость ветра (узлы)
4
Метео видимость
0.09
Облачность
OVX
Нижняя граница облачности (футы)
0
Явления погоды
FG
Условия полета
LIFR
Аэропорт подробнее: 
FG – туман (небо не видно, температура воздуха выше нуля или ноль);

Авиационная погода в Магнитогорске

Погода METAR: 
USCM 282200Z 31003MPS 5000 BR SCT040CB 04/02 Q1009 R36/090060 TEMPO 1500 BR RMK QFE719
Время наблюдения
2022-06-28T22:00:00Z
Температура C
4.0
Точка росы
2.0
Направление ветра
310
Скорость ветра (узлы)
6
Метео видимость
3.11
Облачность
SCT
Нижняя граница облачности (футы)
4000
Явления погоды
BR
Условия полета
MVFR
Аэропорт подробнее: 
SCT – разбросанная отдельная облачность;
BR – дымка (видимость от 1 до 9 км);

Авиационная погода в Новокузнецке

Регион: 
Погода METAR: 
UNWW 282200Z 10001MPS 6000 0200S FG NSC 10/10 Q1008 R19/09//60 NOSIG RMK QFE729
Время наблюдения
2022-06-28T22:00:00Z
Температура C
10.0
Точка росы
10.0
Направление ветра
100
Скорость ветра (узлы)
2
Метео видимость
3.73
Облачность
CLR
Нижняя граница облачности (футы)
Явления погоды
FG
Условия полета
MVFR
Аэропорт подробнее: 
CLR — нет облаков ниже 3000 м
FG – туман (небо не видно, температура воздуха выше нуля или ноль);

Авиационная погода в Сургуте

Регион: 
Погода METAR: 
USRR 300330Z 02007MPS 350V050 9000 -SHRA SCT009 BKN018CB 10/09 Q0993 R07/290245 NOSIG RMK OBST OBSC QFE740
Время наблюдения
2022-06-30T03:30:00Z
Температура C
10.0
Точка росы
9.0
Направление ветра
20
Скорость ветра (узлы)
14
Метео видимость
5.59
Облачность
SCT
BKN
Нижняя граница облачности (футы)
900
1800
Явления погоды
-SHRA
Условия полета
MVFR
Аэропорт подробнее: 
SCT – разбросанная отдельная облачность; BKN – значительная (рассеянная, разорванная) облачность;
-SHRA - слабый ливневой дождь;